Aviation Digital Data Service (ADDS)

Output produced by METARs form (0615 UTC 21 January 2019)
found at http://www.aviationweather.gov/metar/data/
 
METAR text: ESIA 210550Z AUTO 18006KT 9999 OVC007/// M01/M02 Q1013
Conditions at: ESIA (KARLSBORG (SWE-A, SE) observed 0550 UTC 21 January 2019
Temperature: -1.0°C (30°F)
Dewpoint: -2.0°C (28°F) [RH = 93%]
Pressure (altimeter): 29.91 inches Hg (1013.0 mb)
Winds: from the S (180 degrees) at 7 MPH (6 knots; 3.1 m/s)
Visibility: 6 or more miles (10+ km)
Ceiling: 700 feet AGL
Clouds: overcast cloud deck at 700 feet AGL
Weather: no significant weather observed at this time

METAR text: ESIA 210520Z AUTO 19007KT 9999 -SN OVC008/// M01/M02 Q1013
Conditions at: ESIA (KARLSBORG (SWE-A, SE) observed 0520 UTC 21 January 2019
Temperature: -1.0°C (30°F)
Dewpoint: -2.0°C (28°F) [RH = 93%]
Pressure (altimeter): 29.91 inches Hg (1013.0 mb)
Winds: from the S (190 degrees) at 8 MPH (7 knots; 3.6 m/s)
Visibility: 6 or more miles (10+ km)
Ceiling: 800 feet AGL
Clouds: overcast cloud deck at 800 feet AGL
Weather: -SN  (light snow)

METAR text: ESIA 210450Z AUTO 19007KT 9999 -SHSN SCT008/// BKN010/// BKN014/// OVC017/// M01/M03 Q1013
Conditions at: ESIA (KARLSBORG (SWE-A, SE) observed 0450 UTC 21 January 2019
Temperature: -1.0°C (30°F)
Dewpoint: -3.0°C (27°F) [RH = 86%]
Pressure (altimeter): 29.91 inches Hg (1013.0 mb)
Winds: from the S (190 degrees) at 8 MPH (7 knots; 3.6 m/s)
Visibility: 6 or more miles (10+ km)
Ceiling: 1000 feet AGL
Clouds: scattered clouds at 800 feet AGL
broken clouds at 1000 feet AGL
broken clouds at 1400 feet AGL
overcast cloud deck at 1700 feet AGL
Weather: -SHSN  (light snow showers)

METAR text: ESIA 210420Z AUTO 20004KT 2300 -SHSN BKN021/// OVC029/// M02/M04 Q1014
Conditions at: ESIA (KARLSBORG (SWE-A, SE) observed 0420 UTC 21 January 2019
Temperature: -2.0°C (28°F)
Dewpoint: -4.0°C (25°F) [RH = 86%]
Pressure (altimeter): 29.94 inches Hg (1014.0 mb)
Winds: from the SSW (200 degrees) at 5 MPH (4 knots; 2.1 m/s)
Visibility: 1.43 miles (2.30 km)
Ceiling: 2100 feet AGL
Clouds: broken clouds at 2100 feet AGL
overcast cloud deck at 2900 feet AGL
Weather: -SHSN  (light snow showers)

METAR text: ESIA 210350Z AUTO 00000KT 9999 OVC031/// M03/M06 Q1014
Conditions at: ESIA (KARLSBORG (SWE-A, SE) observed 0350 UTC 21 January 2019
Temperature: -3.0°C (27°F)
Dewpoint: -6.0°C (21°F) [RH = 80%]
Pressure (altimeter): 29.94 inches Hg (1014.0 mb)
Winds: calm
Visibility: 6 or more miles (10+ km)
Ceiling: 3100 feet AGL
Clouds: overcast cloud deck at 3100 feet AGL
Weather: no significant weather observed at this time

METAR text: ESIA 210320Z AUTO 00000KT 9999 -SHSN BKN035/// OVC043/// M04/M06 Q1014
Conditions at: ESIA (KARLSBORG (SWE-A, SE) observed 0320 UTC 21 January 2019
Temperature: -4.0°C (25°F)
Dewpoint: -6.0°C (21°F) [RH = 86%]
Pressure (altimeter): 29.94 inches Hg (1014.0 mb)
Winds: calm
Visibility: 6 or more miles (10+ km)
Ceiling: 3500 feet AGL
Clouds: broken clouds at 3500 feet AGL
overcast cloud deck at 4300 feet AGL
Weather: -SHSN  (light snow showers)

METAR text: ESIA 210250Z AUTO 00000KT 9999 OVC041/// M04/M06 Q1015
Conditions at: ESIA (KARLSBORG (SWE-A, SE) observed 0250 UTC 21 January 2019
Temperature: -4.0°C (25°F)
Dewpoint: -6.0°C (21°F) [RH = 86%]
Pressure (altimeter): 29.97 inches Hg (1015.0 mb)
Winds: calm
Visibility: 6 or more miles (10+ km)
Ceiling: 4100 feet AGL
Clouds: overcast cloud deck at 4100 feet AGL
Weather: no significant weather observed at this time

METAR text: ESIA 210220Z AUTO 00000KT 9999 BKN042/// OVC056/// M04/M07 Q1015
Conditions at: ESIA (KARLSBORG (SWE-A, SE) observed 0220 UTC 21 January 2019
Temperature: -4.0°C (25°F)
Dewpoint: -7.0°C (19°F) [RH = 80%]
Pressure (altimeter): 29.97 inches Hg (1015.0 mb)
Winds: calm
Visibility: 6 or more miles (10+ km)
Ceiling: 4200 feet AGL
Clouds: broken clouds at 4200 feet AGL
overcast cloud deck at 5600 feet AGL
Weather: no significant weather observed at this time

METAR text: ESIA 210150Z AUTO VRB01KT 9999 OVC044/// M04/M06 Q1015
Conditions at: ESIA (KARLSBORG (SWE-A, SE) observed 0150 UTC 21 January 2019
Temperature: -4.0°C (25°F)
Dewpoint: -6.0°C (21°F) [RH = 86%]
Pressure (altimeter): 29.97 inches Hg (1015.0 mb)
Winds: variable direction winds at 1 MPH (1 knots; 0.5 m/s)
Visibility: 6 or more miles (10+ km)
Ceiling: 4400 feet AGL
Clouds: overcast cloud deck at 4400 feet AGL
Weather: no significant weather observed at this time

METAR text: ESIA 210120Z AUTO 00000KT 9999 OVC048/// M04/M07 Q1016
Conditions at: ESIA (KARLSBORG (SWE-A, SE) observed 0120 UTC 21 January 2019
Temperature: -4.0°C (25°F)
Dewpoint: -7.0°C (19°F) [RH = 80%]
Pressure (altimeter): 30.00 inches Hg (1016.0 mb)
Winds: calm
Visibility: 6 or more miles (10+ km)
Ceiling: 4800 feet AGL
Clouds: overcast cloud deck at 4800 feet AGL
Weather: no significant weather observed at this time

METAR text: ESIA 210050Z AUTO 00000KT 9999 OVC050/// M04/M07 Q1016
Conditions at: ESIA (KARLSBORG (SWE-A, SE) observed 0050 UTC 21 January 2019
Temperature: -4.0°C (25°F)
Dewpoint: -7.0°C (19°F) [RH = 80%]
Pressure (altimeter): 30.00 inches Hg (1016.0 mb)
Winds: calm
Visibility: 6 or more miles (10+ km)
Ceiling: 5000 feet AGL
Clouds: overcast cloud deck at 5000 feet AGL
Weather: no significant weather observed at this time

METAR text: ESIA 210020Z AUTO 00000KT 9999 OVC050/// M05/M07 Q1016
Conditions at: ESIA (KARLSBORG (SWE-A, SE) observed 0020 UTC 21 January 2019
Temperature: -5.0°C (23°F)
Dewpoint: -7.0°C (19°F) [RH = 86%]
Pressure (altimeter): 30.00 inches Hg (1016.0 mb)
Winds: calm
Visibility: 6 or more miles (10+ km)
Ceiling: 5000 feet AGL
Clouds: overcast cloud deck at 5000 feet AGL
Weather: no significant weather observed at this time

METAR text: ESIA 202350Z AUTO 29002KT 9999 OVC050/// M05/M07 Q1016
Conditions at: ESIA (KARLSBORG (SWE-A, SE) observed 2350 UTC 20 January 2019
Temperature: -5.0°C (23°F)
Dewpoint: -7.0°C (19°F) [RH = 86%]
Pressure (altimeter): 30.00 inches Hg (1016.0 mb)
Winds: from the WNW (290 degrees) at 2 MPH (2 knots; 1.0 m/s)
Visibility: 6 or more miles (10+ km)
Ceiling: 5000 feet AGL
Clouds: overcast cloud deck at 5000 feet AGL
Weather: no significant weather observed at this time

METAR text: ESIA 202320Z AUTO 28003KT 9999 OVC050/// M05/M07 Q1016
Conditions at: ESIA (KARLSBORG (SWE-A, SE) observed 2320 UTC 20 January 2019
Temperature: -5.0°C (23°F)
Dewpoint: -7.0°C (19°F) [RH = 86%]
Pressure (altimeter): 30.00 inches Hg (1016.0 mb)
Winds: from the W (280 degrees) at 3 MPH (3 knots; 1.5 m/s)
Visibility: 6 or more miles (10+ km)
Ceiling: 5000 feet AGL
Clouds: overcast cloud deck at 5000 feet AGL
Weather: no significant weather observed at this time

METAR text: ESIA 202250Z AUTO 27004KT 9999 OVC048/// M07/M08 Q1017
Conditions at: ESIA (KARLSBORG (SWE-A, SE) observed 2250 UTC 20 January 2019
Temperature: -7.0°C (19°F)
Dewpoint: -8.0°C (18°F) [RH = 93%]
Pressure (altimeter): 30.03 inches Hg (1017.0 mb)
Winds: from the W (270 degrees) at 5 MPH (4 knots; 2.1 m/s)
Visibility: 6 or more miles (10+ km)
Ceiling: 4800 feet AGL
Clouds: overcast cloud deck at 4800 feet AGL
Weather: no significant weather observed at this time

METAR text: ESIA 202220Z AUTO 00000KT 9999 BKN050/// M06/M08 Q1017
Conditions at: ESIA (KARLSBORG (SWE-A, SE) observed 2220 UTC 20 January 2019
Temperature: -6.0°C (21°F)
Dewpoint: -8.0°C (18°F) [RH = 86%]
Pressure (altimeter): 30.03 inches Hg (1017.0 mb)
Winds: calm
Visibility: 6 or more miles (10+ km)
Ceiling: 5000 feet AGL
Clouds: broken clouds at 5000 feet AGL
Weather: no significant weather observed at this time

METAR text: ESIA 202150Z AUTO 00000KT 9999 SCT052/// M07/M09 Q1017
Conditions at: ESIA (KARLSBORG (SWE-A, SE) observed 2150 UTC 20 January 2019
Temperature: -7.0°C (19°F)
Dewpoint: -9.0°C (16°F) [RH = 86%]
Pressure (altimeter): 30.03 inches Hg (1017.0 mb)
Winds: calm
Visibility: 6 or more miles (10+ km)
Ceiling: at least 12,000 feet AGL
Clouds: scattered clouds at 5200 feet AGL
Weather: no significant weather observed at this time

METAR text: ESIA 202120Z AUTO 28002KT 9999 SCT052/// M06/M08 Q1017
Conditions at: ESIA (KARLSBORG (SWE-A, SE) observed 2120 UTC 20 January 2019
Temperature: -6.0°C (21°F)
Dewpoint: -8.0°C (18°F) [RH = 86%]
Pressure (altimeter): 30.03 inches Hg (1017.0 mb)
Winds: from the W (280 degrees) at 2 MPH (2 knots; 1.0 m/s)
Visibility: 6 or more miles (10+ km)
Ceiling: at least 12,000 feet AGL
Clouds: scattered clouds at 5200 feet AGL
Weather: no significant weather observed at this time

METAR text: ESIA 202050Z AUTO 30003KT 9999 FEW056/// M07/M08 Q1017
Conditions at: ESIA (KARLSBORG (SWE-A, SE) observed 2050 UTC 20 January 2019
Temperature: -7.0°C (19°F)
Dewpoint: -8.0°C (18°F) [RH = 93%]
Pressure (altimeter): 30.03 inches Hg (1017.0 mb)
Winds: from the WNW (300 degrees) at 3 MPH (3 knots; 1.5 m/s)
Visibility: 6 or more miles (10+ km)
Ceiling: at least 12,000 feet AGL
Clouds: few clouds at 5600 feet AGL
Weather: no significant weather observed at this time

METAR text: ESIA 202020Z AUTO 29002KT 9999 NCD M06/M08 Q1017
Conditions at: ESIA (KARLSBORG (SWE-A, SE) observed 2020 UTC 20 January 2019
Temperature: -6.0°C (21°F)
Dewpoint: -8.0°C (18°F) [RH = 86%]
Pressure (altimeter): 30.03 inches Hg (1017.0 mb)
Winds: from the WNW (290 degrees) at 2 MPH (2 knots; 1.0 m/s)
Visibility: 6 or more miles (10+ km)
Ceiling: at least 12,000 feet AGL
Clouds: sky clear below 12,000 feet AGL
Weather: no significant weather observed at this time

METAR text: ESIA 201950Z AUTO 28004KT 9999 NCD M06/M08 Q1017
Conditions at: ESIA (KARLSBORG (SWE-A, SE) observed 1950 UTC 20 January 2019
Temperature: -6.0°C (21°F)
Dewpoint: -8.0°C (18°F) [RH = 86%]
Pressure (altimeter): 30.03 inches Hg (1017.0 mb)
Winds: from the W (280 degrees) at 5 MPH (4 knots; 2.1 m/s)
Visibility: 6 or more miles (10+ km)
Ceiling: at least 12,000 feet AGL
Clouds: sky clear below 12,000 feet AGL
Weather: no significant weather observed at this time

METAR text: ESIA 201920Z AUTO 28006KT 9999 NCD M06/M07 Q1017
Conditions at: ESIA (KARLSBORG (SWE-A, SE) observed 1920 UTC 20 January 2019
Temperature: -6.0°C (21°F)
Dewpoint: -7.0°C (19°F) [RH = 93%]
Pressure (altimeter): 30.03 inches Hg (1017.0 mb)
Winds: from the W (280 degrees) at 7 MPH (6 knots; 3.1 m/s)
Visibility: 6 or more miles (10+ km)
Ceiling: at least 12,000 feet AGL
Clouds: sky clear below 12,000 feet AGL
Weather: no significant weather observed at this time

METAR text: ESIA 201850Z AUTO 27003KT 9999 NCD M06/M08 Q1017
Conditions at: ESIA (KARLSBORG (SWE-A, SE) observed 1850 UTC 20 January 2019
Temperature: -6.0°C (21°F)
Dewpoint: -8.0°C (18°F) [RH = 86%]
Pressure (altimeter): 30.03 inches Hg (1017.0 mb)
Winds: from the W (270 degrees) at 3 MPH (3 knots; 1.5 m/s)
Visibility: 6 or more miles (10+ km)
Ceiling: at least 12,000 feet AGL
Clouds: sky clear below 12,000 feet AGL
Weather: no significant weather observed at this time

METAR text: ESIA 201820Z AUTO 27002KT 9999 NCD M05/M07 Q1017
Conditions at: ESIA (KARLSBORG (SWE-A, SE) observed 1820 UTC 20 January 2019
Temperature: -5.0°C (23°F)
Dewpoint: -7.0°C (19°F) [RH = 86%]
Pressure (altimeter): 30.03 inches Hg (1017.0 mb)
Winds: from the W (270 degrees) at 2 MPH (2 knots; 1.0 m/s)
Visibility: 6 or more miles (10+ km)
Ceiling: at least 12,000 feet AGL
Clouds: sky clear below 12,000 feet AGL
Weather: no significant weather observed at this time

METAR text: ESIA 201750Z AUTO VRB01KT 9999 NCD M04/M07 Q1017
Conditions at: ESIA (KARLSBORG (SWE-A, SE) observed 1750 UTC 20 January 2019
Temperature: -4.0°C (25°F)
Dewpoint: -7.0°C (19°F) [RH = 80%]
Pressure (altimeter): 30.03 inches Hg (1017.0 mb)
Winds: variable direction winds at 1 MPH (1 knots; 0.5 m/s)
Visibility: 6 or more miles (10+ km)
Ceiling: at least 12,000 feet AGL
Clouds: sky clear below 12,000 feet AGL
Weather: no significant weather observed at this time

METAR text: ESIA 201720Z AUTO 00000KT 9999 NCD M04/M06 Q1017
Conditions at: ESIA (KARLSBORG (SWE-A, SE) observed 1720 UTC 20 January 2019
Temperature: -4.0°C (25°F)
Dewpoint: -6.0°C (21°F) [RH = 86%]
Pressure (altimeter): 30.03 inches Hg (1017.0 mb)
Winds: calm
Visibility: 6 or more miles (10+ km)
Ceiling: at least 12,000 feet AGL
Clouds: sky clear below 12,000 feet AGL
Weather: no significant weather observed at this time

METAR text: ESIA 201650Z AUTO 00000KT 9999 NCD M05/M07 Q1017
Conditions at: ESIA (KARLSBORG (SWE-A, SE) observed 1650 UTC 20 January 2019
Temperature: -5.0°C (23°F)
Dewpoint: -7.0°C (19°F) [RH = 86%]
Pressure (altimeter): 30.03 inches Hg (1017.0 mb)
Winds: calm
Visibility: 6 or more miles (10+ km)
Ceiling: at least 12,000 feet AGL
Clouds: sky clear below 12,000 feet AGL
Weather: no significant weather observed at this time

METAR text: ESIA 201620Z AUTO 00000KT 9999 NCD M04/M06 Q1017
Conditions at: ESIA (KARLSBORG (SWE-A, SE) observed 1620 UTC 20 January 2019
Temperature: -4.0°C (25°F)
Dewpoint: -6.0°C (21°F) [RH = 86%]
Pressure (altimeter): 30.03 inches Hg (1017.0 mb)
Winds: calm
Visibility: 6 or more miles (10+ km)
Ceiling: at least 12,000 feet AGL
Clouds: sky clear below 12,000 feet AGL
Weather: no significant weather observed at this time

METAR text: ESIA 201550Z AUTO VRB01KT 9999 NCD M04/M06 Q1017
Conditions at: ESIA (KARLSBORG (SWE-A, SE) observed 1550 UTC 20 January 2019
Temperature: -4.0°C (25°F)
Dewpoint: -6.0°C (21°F) [RH = 86%]
Pressure (altimeter): 30.03 inches Hg (1017.0 mb)
Winds: variable direction winds at 1 MPH (1 knots; 0.5 m/s)
Visibility: 6 or more miles (10+ km)
Ceiling: at least 12,000 feet AGL
Clouds: sky clear below 12,000 feet AGL
Weather: no significant weather observed at this time

METAR text: ESIA 201520Z AUTO 25002KT 9999 NCD M03/M06 Q1017
Conditions at: ESIA (KARLSBORG (SWE-A, SE) observed 1520 UTC 20 January 2019
Temperature: -3.0°C (27°F)
Dewpoint: -6.0°C (21°F) [RH = 80%]
Pressure (altimeter): 30.03 inches Hg (1017.0 mb)
Winds: from the WSW (250 degrees) at 2 MPH (2 knots; 1.0 m/s)
Visibility: 6 or more miles (10+ km)
Ceiling: at least 12,000 feet AGL
Clouds: sky clear below 12,000 feet AGL
Weather: no significant weather observed at this time

METAR text: ESIA 201450Z AUTO 27003KT 240V300 9999 NCD M03/M06 Q1016
Conditions at: ESIA (KARLSBORG (SWE-A, SE) observed 1450 UTC 20 January 2019
Temperature: -3.0°C (27°F)
Dewpoint: -6.0°C (21°F) [RH = 80%]
Pressure (altimeter): 30.00 inches Hg (1016.0 mb)
Winds: from the W (270 degrees) at 3 MPH (3 knots; 1.5 m/s)
Visibility: 6 or more miles (10+ km)
Ceiling: at least 12,000 feet AGL
Clouds: sky clear below 12,000 feet AGL
Weather: no significant weather observed at this time

METAR text: ESIA 201420Z AUTO 29004KT 9999 NCD M02/M05 Q1016
Conditions at: ESIA (KARLSBORG (SWE-A, SE) observed 1420 UTC 20 January 2019
Temperature: -2.0°C (28°F)
Dewpoint: -5.0°C (23°F) [RH = 80%]
Pressure (altimeter): 30.00 inches Hg (1016.0 mb)
Winds: from the WNW (290 degrees) at 5 MPH (4 knots; 2.1 m/s)
Visibility: 6 or more miles (10+ km)
Ceiling: at least 12,000 feet AGL
Clouds: sky clear below 12,000 feet AGL
Weather: no significant weather observed at this time

METAR text: ESIA 201350Z AUTO 30004KT 260V340 9999 NCD M01/M06 Q1016
Conditions at: ESIA (KARLSBORG (SWE-A, SE) observed 1350 UTC 20 January 2019
Temperature: -1.0°C (30°F)
Dewpoint: -6.0°C (21°F) [RH = 69%]
Pressure (altimeter): 30.00 inches Hg (1016.0 mb)
Winds: from the WNW (300 degrees) at 5 MPH (4 knots; 2.1 m/s)
Visibility: 6 or more miles (10+ km)
Ceiling: at least 12,000 feet AGL
Clouds: sky clear below 12,000 feet AGL
Weather: no significant weather observed at this time

METAR text: ESIA 201320Z AUTO 28006KT 9999 NCD M01/M06 Q1016
Conditions at: ESIA (KARLSBORG (SWE-A, SE) observed 1320 UTC 20 January 2019
Temperature: -1.0°C (30°F)
Dewpoint: -6.0°C (21°F) [RH = 69%]
Pressure (altimeter): 30.00 inches Hg (1016.0 mb)
Winds: from the W (280 degrees) at 7 MPH (6 knots; 3.1 m/s)
Visibility: 6 or more miles (10+ km)
Ceiling: at least 12,000 feet AGL
Clouds: sky clear below 12,000 feet AGL
Weather: no significant weather observed at this time

METAR text: ESIA 201250Z AUTO 28004KT 9999 NCD M01/M05 Q1016
Conditions at: ESIA (KARLSBORG (SWE-A, SE) observed 1250 UTC 20 January 2019
Temperature: -1.0°C (30°F)
Dewpoint: -5.0°C (23°F) [RH = 74%]
Pressure (altimeter): 30.00 inches Hg (1016.0 mb)
Winds: from the W (280 degrees) at 5 MPH (4 knots; 2.1 m/s)
Visibility: 6 or more miles (10+ km)
Ceiling: at least 12,000 feet AGL
Clouds: sky clear below 12,000 feet AGL
Weather: no significant weather observed at this time

METAR text: ESIA 201220Z AUTO 28005KT 9999 NCD M01/M06 Q1017
Conditions at: ESIA (KARLSBORG (SWE-A, SE) observed 1220 UTC 20 January 2019
Temperature: -1.0°C (30°F)
Dewpoint: -6.0°C (21°F) [RH = 69%]
Pressure (altimeter): 30.03 inches Hg (1017.0 mb)
Winds: from the W (280 degrees) at 6 MPH (5 knots; 2.6 m/s)
Visibility: 6 or more miles (10+ km)
Ceiling: at least 12,000 feet AGL
Clouds: sky clear below 12,000 feet AGL
Weather: no significant weather observed at this time

METAR text: ESIA 201150Z AUTO 28005KT 9999 NCD M01/M06 Q1016
Conditions at: ESIA (KARLSBORG (SWE-A, SE) observed 1150 UTC 20 January 2019
Temperature: -1.0°C (30°F)
Dewpoint: -6.0°C (21°F) [RH = 69%]
Pressure (altimeter): 30.00 inches Hg (1016.0 mb)
Winds: from the W (280 degrees) at 6 MPH (5 knots; 2.6 m/s)
Visibility: 6 or more miles (10+ km)
Ceiling: at least 12,000 feet AGL
Clouds: sky clear below 12,000 feet AGL
Weather: no significant weather observed at this time

METAR text: ESIA 201120Z AUTO 29003KT 260V350 9999 NCD M01/M07 Q1016
Conditions at: ESIA (KARLSBORG (SWE-A, SE) observed 1120 UTC 20 January 2019
Temperature: -1.0°C (30°F)
Dewpoint: -7.0°C (19°F) [RH = 64%]
Pressure (altimeter): 30.00 inches Hg (1016.0 mb)
Winds: from the WNW (290 degrees) at 3 MPH (3 knots; 1.5 m/s)
Visibility: 6 or more miles (10+ km)
Ceiling: at least 12,000 feet AGL
Clouds: sky clear below 12,000 feet AGL
Weather: no significant weather observed at this time

METAR text: ESIA 201050Z AUTO 29004KT 260V320 9999 NCD M01/M06 Q1016
Conditions at: ESIA (KARLSBORG (SWE-A, SE) observed 1050 UTC 20 January 2019
Temperature: -1.0°C (30°F)
Dewpoint: -6.0°C (21°F) [RH = 69%]
Pressure (altimeter): 30.00 inches Hg (1016.0 mb)
Winds: from the WNW (290 degrees) at 5 MPH (4 knots; 2.1 m/s)
Visibility: 6 or more miles (10+ km)
Ceiling: at least 12,000 feet AGL
Clouds: sky clear below 12,000 feet AGL
Weather: no significant weather observed at this time

METAR text: ESIA 201020Z AUTO 30003KT 260V330 9999 NCD M01/M06 Q1016
Conditions at: ESIA (KARLSBORG (SWE-A, SE) observed 1020 UTC 20 January 2019
Temperature: -1.0°C (30°F)
Dewpoint: -6.0°C (21°F) [RH = 69%]
Pressure (altimeter): 30.00 inches Hg (1016.0 mb)
Winds: from the WNW (300 degrees) at 3 MPH (3 knots; 1.5 m/s)
Visibility: 6 or more miles (10+ km)
Ceiling: at least 12,000 feet AGL
Clouds: sky clear below 12,000 feet AGL
Weather: no significant weather observed at this time

METAR text: ESIA 200950Z AUTO VRB02KT 9999 NCD M02/M07 Q1016
Conditions at: ESIA (KARLSBORG (SWE-A, SE) observed 0950 UTC 20 January 2019
Temperature: -2.0°C (28°F)
Dewpoint: -7.0°C (19°F) [RH = 69%]
Pressure (altimeter): 30.00 inches Hg (1016.0 mb)
Winds: variable direction winds at 2 MPH (2 knots; 1.0 m/s)
Visibility: 6 or more miles (10+ km)
Ceiling: at least 12,000 feet AGL
Clouds: sky clear below 12,000 feet AGL
Weather: no significant weather observed at this time

METAR text: ESIA 200920Z AUTO 00000KT 9999 NCD M03/M08 Q1016
Conditions at: ESIA (KARLSBORG (SWE-A, SE) observed 0920 UTC 20 January 2019
Temperature: -3.0°C (27°F)
Dewpoint: -8.0°C (18°F) [RH = 68%]
Pressure (altimeter): 30.00 inches Hg (1016.0 mb)
Winds: calm
Visibility: 6 or more miles (10+ km)
Ceiling: at least 12,000 feet AGL
Clouds: sky clear below 12,000 feet AGL
Weather: no significant weather observed at this time

METAR text: ESIA 200850Z AUTO 26002KT 9999 NCD M04/M08 Q1016
Conditions at: ESIA (KARLSBORG (SWE-A, SE) observed 0850 UTC 20 January 2019
Temperature: -4.0°C (25°F)
Dewpoint: -8.0°C (18°F) [RH = 74%]
Pressure (altimeter): 30.00 inches Hg (1016.0 mb)
Winds: from the W (260 degrees) at 2 MPH (2 knots; 1.0 m/s)
Visibility: 6 or more miles (10+ km)
Ceiling: at least 12,000 feet AGL
Clouds: sky clear below 12,000 feet AGL
Weather: no significant weather observed at this time

METAR text: ESIA 200820Z AUTO 28003KT 9999 NCD M04/M09 Q1015
Conditions at: ESIA (KARLSBORG (SWE-A, SE) observed 0820 UTC 20 January 2019
Temperature: -4.0°C (25°F)
Dewpoint: -9.0°C (16°F) [RH = 68%]
Pressure (altimeter): 29.97 inches Hg (1015.0 mb)
Winds: from the W (280 degrees) at 3 MPH (3 knots; 1.5 m/s)
Visibility: 6 or more miles (10+ km)
Ceiling: at least 12,000 feet AGL
Clouds: sky clear below 12,000 feet AGL
Weather: no significant weather observed at this time

METAR text: ESIA 200750Z AUTO 29002KT 9999 NCD M03/M09 Q1015
Conditions at: ESIA (KARLSBORG (SWE-A, SE) observed 0750 UTC 20 January 2019
Temperature: -3.0°C (27°F)
Dewpoint: -9.0°C (16°F) [RH = 63%]
Pressure (altimeter): 29.97 inches Hg (1015.0 mb)
Winds: from the WNW (290 degrees) at 2 MPH (2 knots; 1.0 m/s)
Visibility: 6 or more miles (10+ km)
Ceiling: at least 12,000 feet AGL
Clouds: sky clear below 12,000 feet AGL
Weather: no significant weather observed at this time

METAR text: ESIA 200720Z AUTO VRB02KT 9999 NCD M03/M09 Q1015
Conditions at: ESIA (KARLSBORG (SWE-A, SE) observed 0720 UTC 20 January 2019
Temperature: -3.0°C (27°F)
Dewpoint: -9.0°C (16°F) [RH = 63%]
Pressure (altimeter): 29.97 inches Hg (1015.0 mb)
Winds: variable direction winds at 2 MPH (2 knots; 1.0 m/s)
Visibility: 6 or more miles (10+ km)
Ceiling: at least 12,000 feet AGL
Clouds: sky clear below 12,000 feet AGL
Weather: no significant weather observed at this time

METAR text: ESIA 200650Z AUTO 32003KT 9999 NCD M03/M09 Q1015
Conditions at: ESIA (KARLSBORG (SWE-A, SE) observed 0650 UTC 20 January 2019
Temperature: -3.0°C (27°F)
Dewpoint: -9.0°C (16°F) [RH = 63%]
Pressure (altimeter): 29.97 inches Hg (1015.0 mb)
Winds: from the NW (320 degrees) at 3 MPH (3 knots; 1.5 m/s)
Visibility: 6 or more miles (10+ km)
Ceiling: at least 12,000 feet AGL
Clouds: sky clear below 12,000 feet AGL
Weather: no significant weather observed at this time

METAR text: ESIA 200620Z AUTO 31003KT 280V350 9999 NCD M03/M09 Q1014
Conditions at: ESIA (KARLSBORG (SWE-A, SE) observed 0620 UTC 20 January 2019
Temperature: -3.0°C (27°F)
Dewpoint: -9.0°C (16°F) [RH = 63%]
Pressure (altimeter): 29.94 inches Hg (1014.0 mb)
Winds: from the NW (310 degrees) at 3 MPH (3 knots; 1.5 m/s)
Visibility: 6 or more miles (10+ km)
Ceiling: at least 12,000 feet AGL
Clouds: sky clear below 12,000 feet AGL
Weather: no significant weather observed at this time

METAR text: ESIA 200550Z AUTO 00000KT 9999 SCT080/// M03/M09 Q1014
Conditions at: ESIA (KARLSBORG (SWE-A, SE) observed 0550 UTC 20 January 2019
Temperature: -3.0°C (27°F)
Dewpoint: -9.0°C (16°F) [RH = 63%]
Pressure (altimeter): 29.94 inches Hg (1014.0 mb)
Winds: calm
Visibility: 6 or more miles (10+ km)
Ceiling: at least 12,000 feet AGL
Clouds: scattered clouds at 8000 feet AGL
Weather: no significant weather observed at this time

METAR text: ESIA 200520Z AUTO 00000KT 9999 BKN078/// M02/M09 Q1014
Conditions at: ESIA (KARLSBORG (SWE-A, SE) observed 0520 UTC 20 January 2019
Temperature: -2.0°C (28°F)
Dewpoint: -9.0°C (16°F) [RH = 59%]
Pressure (altimeter): 29.94 inches Hg (1014.0 mb)
Winds: calm
Visibility: 6 or more miles (10+ km)
Ceiling: 7800 feet AGL
Clouds: broken clouds at 7800 feet AGL
Weather: no significant weather observed at this time

METAR text: ESIA 200450Z AUTO VRB01KT 9999 OVC080/// M02/M09 Q1014
Conditions at: ESIA (KARLSBORG (SWE-A, SE) observed 0450 UTC 20 January 2019
Temperature: -2.0°C (28°F)
Dewpoint: -9.0°C (16°F) [RH = 59%]
Pressure (altimeter): 29.94 inches Hg (1014.0 mb)
Winds: variable direction winds at 1 MPH (1 knots; 0.5 m/s)
Visibility: 6 or more miles (10+ km)
Ceiling: 8000 feet AGL
Clouds: overcast cloud deck at 8000 feet AGL
Weather: no significant weather observed at this time

METAR text: ESIA 200420Z AUTO 28002KT 9999 OVC084/// M03/M07 Q1014
Conditions at: ESIA (KARLSBORG (SWE-A, SE) observed 0420 UTC 20 January 2019
Temperature: -3.0°C (27°F)
Dewpoint: -7.0°C (19°F) [RH = 74%]
Pressure (altimeter): 29.94 inches Hg (1014.0 mb)
Winds: from the W (280 degrees) at 2 MPH (2 knots; 1.0 m/s)
Visibility: 6 or more miles (10+ km)
Ceiling: 8400 feet AGL
Clouds: overcast cloud deck at 8400 feet AGL
Weather: no significant weather observed at this time

METAR text: ESIA 200350Z AUTO 29003KT 9999 FEW060/// SCT080/// M02/M09 Q1014
Conditions at: ESIA (KARLSBORG (SWE-A, SE) observed 0350 UTC 20 January 2019
Temperature: -2.0°C (28°F)
Dewpoint: -9.0°C (16°F) [RH = 59%]
Pressure (altimeter): 29.94 inches Hg (1014.0 mb)
Winds: from the WNW (290 degrees) at 3 MPH (3 knots; 1.5 m/s)
Visibility: 6 or more miles (10+ km)
Ceiling: at least 12,000 feet AGL
Clouds: few clouds at 6000 feet AGL
scattered clouds at 8000 feet AGL
Weather: no significant weather observed at this time

METAR text: ESIA 200320Z AUTO VRB02KT 9999 OVC062/// M01/M08 Q1014
Conditions at: ESIA (KARLSBORG (SWE-A, SE) observed 0320 UTC 20 January 2019
Temperature: -1.0°C (30°F)
Dewpoint: -8.0°C (18°F) [RH = 59%]
Pressure (altimeter): 29.94 inches Hg (1014.0 mb)
Winds: variable direction winds at 2 MPH (2 knots; 1.0 m/s)
Visibility: 6 or more miles (10+ km)
Ceiling: 6200 feet AGL
Clouds: overcast cloud deck at 6200 feet AGL
Weather: no significant weather observed at this time

METAR text: ESIA 200250Z AUTO 29003KT 270V330 9999 SCT058/// OVC082/// M01/M08 Q1013
Conditions at: ESIA (KARLSBORG (SWE-A, SE) observed 0250 UTC 20 January 2019
Temperature: -1.0°C (30°F)
Dewpoint: -8.0°C (18°F) [RH = 59%]
Pressure (altimeter): 29.91 inches Hg (1013.0 mb)
Winds: from the WNW (290 degrees) at 3 MPH (3 knots; 1.5 m/s)
Visibility: 6 or more miles (10+ km)
Ceiling: 8200 feet AGL
Clouds: scattered clouds at 5800 feet AGL
overcast cloud deck at 8200 feet AGL
Weather: no significant weather observed at this time

METAR text: ESIA 200220Z AUTO VRB01KT 9999 SCT056/// OVC080/// M01/M08 Q1013
Conditions at: ESIA (KARLSBORG (SWE-A, SE) observed 0220 UTC 20 January 2019
Temperature: -1.0°C (30°F)
Dewpoint: -8.0°C (18°F) [RH = 59%]
Pressure (altimeter): 29.91 inches Hg (1013.0 mb)
Winds: variable direction winds at 1 MPH (1 knots; 0.5 m/s)
Visibility: 6 or more miles (10+ km)
Ceiling: 8000 feet AGL
Clouds: scattered clouds at 5600 feet AGL
overcast cloud deck at 8000 feet AGL
Weather: no significant weather observed at this time

METAR text: ESIA 200150Z AUTO 33003KT 300V360 9999 OVC054/// M01/M08 Q1013
Conditions at: ESIA (KARLSBORG (SWE-A, SE) observed 0150 UTC 20 January 2019
Temperature: -1.0°C (30°F)
Dewpoint: -8.0°C (18°F) [RH = 59%]
Pressure (altimeter): 29.91 inches Hg (1013.0 mb)
Winds: from the NNW (330 degrees) at 3 MPH (3 knots; 1.5 m/s)
Visibility: 6 or more miles (10+ km)
Ceiling: 5400 feet AGL
Clouds: overcast cloud deck at 5400 feet AGL
Weather: no significant weather observed at this time

METAR text: ESIA 200120Z AUTO 34004KT 290V010 9999 OVC052/// M01/M08 Q1013
Conditions at: ESIA (KARLSBORG (SWE-A, SE) observed 0120 UTC 20 January 2019
Temperature: -1.0°C (30°F)
Dewpoint: -8.0°C (18°F) [RH = 59%]
Pressure (altimeter): 29.91 inches Hg (1013.0 mb)
Winds: from the NNW (340 degrees) at 5 MPH (4 knots; 2.1 m/s)
Visibility: 6 or more miles (10+ km)
Ceiling: 5200 feet AGL
Clouds: overcast cloud deck at 5200 feet AGL
Weather: no significant weather observed at this time

METAR text: ESIA 200050Z AUTO VRB02KT 9999 SCT052/// OVC082/// M01/M06 Q1013
Conditions at: ESIA (KARLSBORG (SWE-A, SE) observed 0050 UTC 20 January 2019
Temperature: -1.0°C (30°F)
Dewpoint: -6.0°C (21°F) [RH = 69%]
Pressure (altimeter): 29.91 inches Hg (1013.0 mb)
Winds: variable direction winds at 2 MPH (2 knots; 1.0 m/s)
Visibility: 6 or more miles (10+ km)
Ceiling: 8200 feet AGL
Clouds: scattered clouds at 5200 feet AGL
overcast cloud deck at 8200 feet AGL
Weather: no significant weather observed at this time

METAR text: ESIA 200020Z AUTO 35003KT 320V030 9999 BKN050/// OVC080/// M00/M06 Q1013
Conditions at: ESIA (KARLSBORG (SWE-A, SE) observed 0020 UTC 20 January 2019
Temperature: 0.0°C (32°F)
Dewpoint: -6.0°C (21°F) [RH = 64%]
Pressure (altimeter): 29.91 inches Hg (1013.0 mb)
Winds: from the N (350 degrees) at 3 MPH (3 knots; 1.5 m/s)
Visibility: 6 or more miles (10+ km)
Ceiling: 5000 feet AGL
Clouds: broken clouds at 5000 feet AGL
overcast cloud deck at 8000 feet AGL
Weather: no significant weather observed at this time

METAR text: ESIA 192350Z AUTO VRB01KT 9999 BKN049/// OVC078/// M00/M06 Q1012
Conditions at: ESIA (KARLSBORG (SWE-A, SE) observed 2350 UTC 19 January 2019
Temperature: 0.0°C (32°F)
Dewpoint: -6.0°C (21°F) [RH = 64%]
Pressure (altimeter): 29.88 inches Hg (1012.0 mb)
Winds: variable direction winds at 1 MPH (1 knots; 0.5 m/s)
Visibility: 6 or more miles (10+ km)
Ceiling: 4900 feet AGL
Clouds: broken clouds at 4900 feet AGL
overcast cloud deck at 7800 feet AGL
Weather: no significant weather observed at this time

METAR text: ESIA 192320Z AUTO 30002KT 9999 FEW048/// SCT058/// OVC080/// 00/M06 Q1012
Conditions at: ESIA (KARLSBORG (SWE-A, SE) observed 2320 UTC 19 January 2019
Temperature: 0.0°C (32°F)
Dewpoint: -6.0°C (21°F) [RH = 64%]
Pressure (altimeter): 29.88 inches Hg (1012.0 mb)
Winds: from the WNW (300 degrees) at 2 MPH (2 knots; 1.0 m/s)
Visibility: 6 or more miles (10+ km)
Ceiling: 8000 feet AGL
Clouds: few clouds at 4800 feet AGL
scattered clouds at 5800 feet AGL
overcast cloud deck at 8000 feet AGL
Weather: no significant weather observed at this time

METAR text: ESIA 192250Z AUTO 33004KT 290V030 9999 -SHUP FEW033/// BKN050/// OVC062/// 00/M06 Q1012
Conditions at: ESIA (KARLSBORG (SWE-A, SE) observed 2250 UTC 19 January 2019
Temperature: 0.0°C (32°F)
Dewpoint: -6.0°C (21°F) [RH = 64%]
Pressure (altimeter): 29.88 inches Hg (1012.0 mb)
Winds: from the NNW (330 degrees) at 5 MPH (4 knots; 2.1 m/s)
Visibility: 6 or more miles (10+ km)
Ceiling: 5000 feet AGL
Clouds: few clouds at 3300 feet AGL
broken clouds at 5000 feet AGL
overcast cloud deck at 6200 feet AGL
Weather: SH UP  (showers, unknown precipitation)

METAR text: ESIA 192220Z AUTO 00000KT 9999 SCT052/// BKN066/// OVC082/// M01/M03 Q1012
Conditions at: ESIA (KARLSBORG (SWE-A, SE) observed 2220 UTC 19 January 2019
Temperature: -1.0°C (30°F)
Dewpoint: -3.0°C (27°F) [RH = 86%]
Pressure (altimeter): 29.88 inches Hg (1012.0 mb)
Winds: calm
Visibility: 6 or more miles (10+ km)
Ceiling: 6600 feet AGL
Clouds: scattered clouds at 5200 feet AGL
broken clouds at 6600 feet AGL
overcast cloud deck at 8200 feet AGL
Weather: no significant weather observed at this time

METAR text: ESIA 192150Z AUTO 29003KT 9999 FEW032/// OVC054/// M00/M03 Q1012
Conditions at: ESIA (KARLSBORG (SWE-A, SE) observed 2150 UTC 19 January 2019
Temperature: 0.0°C (32°F)
Dewpoint: -3.0°C (27°F) [RH = 80%]
Pressure (altimeter): 29.88 inches Hg (1012.0 mb)
Winds: from the WNW (290 degrees) at 3 MPH (3 knots; 1.5 m/s)
Visibility: 6 or more miles (10+ km)
Ceiling: 5400 feet AGL
Clouds: few clouds at 3200 feet AGL
overcast cloud deck at 5400 feet AGL
Weather: no significant weather observed at this time

METAR text: ESIA 192120Z AUTO 26003KT 9999 FEW033/// OVC054/// M01/M03 Q1012
Conditions at: ESIA (KARLSBORG (SWE-A, SE) observed 2120 UTC 19 January 2019
Temperature: -1.0°C (30°F)
Dewpoint: -3.0°C (27°F) [RH = 86%]
Pressure (altimeter): 29.88 inches Hg (1012.0 mb)
Winds: from the W (260 degrees) at 3 MPH (3 knots; 1.5 m/s)
Visibility: 6 or more miles (10+ km)
Ceiling: 5400 feet AGL
Clouds: few clouds at 3300 feet AGL
overcast cloud deck at 5400 feet AGL
Weather: no significant weather observed at this time

METAR text: ESIA 192050Z AUTO 00000KT 9999 -SHSN FEW021/// SCT038/// OVC054/// 00/M03 Q1012
Conditions at: ESIA (KARLSBORG (SWE-A, SE) observed 2050 UTC 19 January 2019
Temperature: 0.0°C (32°F)
Dewpoint: -3.0°C (27°F) [RH = 80%]
Pressure (altimeter): 29.88 inches Hg (1012.0 mb)
Winds: calm
Visibility: 6 or more miles (10+ km)
Ceiling: 5400 feet AGL
Clouds: few clouds at 2100 feet AGL
scattered clouds at 3800 feet AGL
overcast cloud deck at 5400 feet AGL
Weather: -SHSN  (light snow showers)

METAR text: ESIA 192020Z AUTO VRB01KT 9999 -SHSN FEW027/// SCT035/// OVC050/// 01/M02 Q1012
Conditions at: ESIA (KARLSBORG (SWE-A, SE) observed 2020 UTC 19 January 2019
Temperature: 1.0°C (34°F)
Dewpoint: -2.0°C (28°F) [RH = 80%]
Pressure (altimeter): 29.88 inches Hg (1012.0 mb)
Winds: variable direction winds at 1 MPH (1 knots; 0.5 m/s)
Visibility: 6 or more miles (10+ km)
Ceiling: 5000 feet AGL
Clouds: few clouds at 2700 feet AGL
scattered clouds at 3500 feet AGL
overcast cloud deck at 5000 feet AGL
Weather: -SHSN  (light snow showers)

METAR text: ESIA 191950Z AUTO 30003KT 280V350 9999 -SN BKN020/// OVC038/// 01/M02 Q1011
Conditions at: ESIA (KARLSBORG (SWE-A, SE) observed 1950 UTC 19 January 2019
Temperature: 1.0°C (34°F)
Dewpoint: -2.0°C (28°F) [RH = 80%]
Pressure (altimeter): 29.85 inches Hg (1011.0 mb)
Winds: from the WNW (300 degrees) at 3 MPH (3 knots; 1.5 m/s)
Visibility: 6 or more miles (10+ km)
Ceiling: 2000 feet AGL
Clouds: broken clouds at 2000 feet AGL
overcast cloud deck at 3800 feet AGL
Weather: -SN  (light snow)

METAR text: ESIA 191920Z AUTO 28004KT 9999 -UP SCT026/// BKN041/// OVC078/// 01/M02 Q1011
Conditions at: ESIA (KARLSBORG (SWE-A, SE) observed 1920 UTC 19 January 2019
Temperature: 1.0°C (34°F)
Dewpoint: -2.0°C (28°F) [RH = 80%]
Pressure (altimeter): 29.85 inches Hg (1011.0 mb)
Winds: from the W (280 degrees) at 5 MPH (4 knots; 2.1 m/s)
Visibility: 6 or more miles (10+ km)
Ceiling: 4100 feet AGL
Clouds: scattered clouds at 2600 feet AGL
broken clouds at 4100 feet AGL
overcast cloud deck at 7800 feet AGL
Weather: UP  (unknown precipitation)

METAR text: ESIA 191850Z AUTO 28006KT 9999 BKN070/// OVC088/// 01/M02 Q1011
Conditions at: ESIA (KARLSBORG (SWE-A, SE) observed 1850 UTC 19 January 2019
Temperature: 1.0°C (34°F)
Dewpoint: -2.0°C (28°F) [RH = 80%]
Pressure (altimeter): 29.85 inches Hg (1011.0 mb)
Winds: from the W (280 degrees) at 7 MPH (6 knots; 3.1 m/s)
Visibility: 6 or more miles (10+ km)
Ceiling: 7000 feet AGL
Clouds: broken clouds at 7000 feet AGL
overcast cloud deck at 8800 feet AGL
Weather: no significant weather observed at this time

METAR text: ESIA 191820Z AUTO 28008KT 9999 OVC064/// 01/M02 Q1010
Conditions at: ESIA (KARLSBORG (SWE-A, SE) observed 1820 UTC 19 January 2019
Temperature: 1.0°C (34°F)
Dewpoint: -2.0°C (28°F) [RH = 80%]
Pressure (altimeter): 29.82 inches Hg (1010.0 mb)
Winds: from the W (280 degrees) at 9 MPH (8 knots; 4.1 m/s)
Visibility: 6 or more miles (10+ km)
Ceiling: 6400 feet AGL
Clouds: overcast cloud deck at 6400 feet AGL
Weather: no significant weather observed at this time